Time;durP1;ratioP1;P1;durP2;ratioP2;P2;SDS_P1;SDS_P2;PMS_P1;PMS_P2;Temp;Humidity;BMP_temperature;BMP_pressure;BME280_temperature;BME280_humidity;BME280_pressure;Samples;Min_cycle;Max_cycle;Signal;HPM_P1;HPM_P2
2022/11/17 00:02:14;;;;;;;4.40;4.00;;;;;;;9.50;100.00;98760.75;6092947;23;20694;-74
2022/11/17 00:04:40;;;;;;;14.93;4.55;;;;;;;9.05;100.00;98677.03;6099481;23;20052;-74
2022/11/17 00:07:06;;;;;;;4.50;4.20;;;;;;;9.36;100.00;98726.03;6082136;23;20079;-73
2022/11/17 00:09:33;;;;;;;6.07;4.03;;;;;;;9.65;100.00;98774.44;6101754;23;20026;-73
2022/11/17 00:14:48;;;;;;;4.93;4.25;;;;;;;9.35;100.00;98710.44;6076583;23;20083;-73
2022/11/17 00:17:14;;;;;;;4.10;3.90;;;;;;;9.36;100.00;98704.22;6053604;23;20411;-73
2022/11/17 00:22:30;;;;;;;3.70;3.60;;;;;;;9.81;100.00;98748.66;6056624;23;20543;-73
2022/11/17 00:24:57;;;;;;;4.10;3.90;;;;;;;9.50;100.00;98692.66;6088255;23;20555;-74
2022/11/17 00:27:24;;;;;;;4.63;4.20;;;;;;;9.30;100.00;98663.69;6090555;23;20092;-73
2022/11/17 00:29:50;;;;;;;4.30;4.10;;;;;;;9.85;100.00;98737.00;6079536;23;20033;-74
2022/11/17 00:35:04;;;;;;;4.30;4.05;;;;;;;9.82;100.00;98731.97;6080308;23;20122;-72
2022/11/17 00:37:37;;;;;;;4.20;4.00;;;;;;;9.80;100.00;98736.50;6056949;23;20611;-72
2022/11/17 00:40:04;;;;;;;3.90;3.75;;;;;;;9.73;100.00;98736.19;6079808;23;20017;-72
2022/11/17 00:42:31;;;;;;;4.20;4.00;;;;;;;9.33;100.00;98675.69;6048919;23;20027;-72
2022/11/17 00:44:57;;;;;;;4.40;4.00;;;;;;;9.44;100.00;98683.53;6080531;23;20036;-72
2022/11/17 00:47:23;;;;;;;3.95;3.75;;;;;;;9.66;100.00;98726.31;6057501;23;20010;-72
2022/11/17 00:49:50;;;;;;;4.30;4.00;;;;;;;9.19;100.00;98627.88;6081505;23;20026;-72
2022/11/17 00:52:16;;;;;;;4.03;3.83;;;;;;;9.69;100.00;98708.56;6053614;23;20512;-72
2022/11/17 00:54:42;;;;;;;5.28;4.18;;;;;;;9.65;100.00;98690.63;6078884;23;20034;-72
2022/11/17 00:57:09;;;;;;;3.80;3.60;;;;;;;9.65;100.00;98696.69;6057594;23;20511;-72
2022/11/17 00:59:35;;;;;;;4.20;4.00;;;;;;;9.17;100.00;98621.13;6085038;23;20562;-72
2022/11/17 01:02:02;;;;;;;4.20;4.00;;;;;;;9.03;100.00;98592.59;6057725;23;20021;-72
2022/11/17 01:04:28;;;;;;;4.07;3.88;;;;;;;9.53;100.00;98677.53;6084498;23;20405;-72
2022/11/17 01:06:55;;;;;;;3.90;3.70;;;;;;;9.48;100.00;98664.00;6087001;23;20072;-71
2022/11/17 01:09:23;;;;;;;10.38;5.47;;;;;;;7.83;100.00;98400.72;6062687;23;20026;-72
2022/11/17 01:11:51;;;;;;;3.80;3.65;;;;;;;9.34;100.00;98635.47;6090746;23;20049;-74
2022/11/17 01:14:24;;;;;;;3.97;3.78;;;;;;;8.84;100.00;98552.22;6063268;23;20026;-74
2022/11/17 01:16:51;;;;;;;4.00;3.80;;;;;;;9.09;100.00;98582.47;6082676;23;20030;-74
2022/11/17 01:19:19;;;;;;;4.68;3.80;;;;;;;8.87;100.00;98548.53;6059150;23;20023;-72
2022/11/17 01:21:45;;;;;;;4.20;4.00;;;;;;;9.37;100.00;98622.13;6058331;23;21366;-72
2022/11/17 01:24:14;;;;;;;4.30;3.92;;;;;;;9.42;100.00;98627.00;6100996;23;20087;-72
2022/11/17 01:26:42;;;;;;;4.40;4.20;;;;;;;9.43;100.00;98621.66;6086947;23;20026;-72
2022/11/17 01:29:11;;;;;;;4.30;4.10;;;;;;;9.43;100.00;98610.34;6094950;23;20014;-72
2022/11/17 01:31:42;;;;;;;4.20;4.00;;;;;;;9.10;100.00;98555.38;6061941;23;20018;-72
2022/11/17 01:34:08;;;;;;;4.05;3.85;;;;;;;8.85;100.00;98509.41;6089520;23;20021;-72
2022/11/17 01:39:24;;;;;;;4.20;4.00;;;;;;;8.90;100.00;98512.50;6090277;23;20540;-76
2022/11/17 01:41:52;;;;;;;4.10;3.90;;;;;;;9.37;100.00;98581.06;6082690;23;20081;-72
2022/11/17 01:44:34;;;;;;;3.67;3.58;;;;;;;9.43;100.00;98584.16;6079824;23;20042;-72
2022/11/17 01:47:10;;;;;;;4.15;3.95;;;;;;;8.83;100.00;98486.94;6076778;23;20091;-73
2022/11/17 01:49:36;;;;;;;4.45;4.25;;;;;;;8.90;100.00;98485.47;6054593;23;20077;-72
2022/11/17 01:52:07;;;;;;;4.60;4.30;;;;;;;9.49;100.00;98575.81;6053960;23;20068;-72
2022/11/17 01:54:36;;;;;;;4.18;3.97;;;;;;;9.01;100.00;98501.16;6087978;23;20018;-72
2022/11/17 01:57:11;;;;;;;3.83;3.70;;;;;;;8.94;100.00;98468.59;6063892;23;20080;-72
2022/11/17 01:59:49;;;;;;;3.97;3.78;;;;;;;9.54;100.00;98564.00;6077902;23;20010;-72
2022/11/17 02:02:17;;;;;;;3.90;3.70;;;;;;;8.87;100.00;98449.94;6060979;23;20023;-72
2022/11/17 02:04:52;;;;;;;4.40;4.20;;;;;;;9.50;100.00;98556.50;6080015;23;20095;-72
2022/11/17 02:07:24;;;;;;;3.92;3.75;;;;;;;9.53;100.00;98566.75;6047757;23;20024;-72
2022/11/17 02:09:52;;;;;;;4.00;3.80;;;;;;;9.50;100.00;98552.13;6084106;23;20091;-72
2022/11/17 02:12:20;;;;;;;4.68;4.20;;;;;;;9.05;100.00;98486.03;6031369;23;20043;-72
2022/11/17 02:14:50;;;;;;;4.03;3.85;;;;;;;9.54;100.00;98544.81;6082382;23;20064;-72
2022/11/17 02:17:18;;;;;;;4.43;4.13;;;;;;;9.37;100.00;98520.88;6030756;23;20022;-74
2022/11/17 02:20:02;;;;;;;4.20;3.90;;;;;;;9.56;100.00;98541.16;6050761;23;20022;-72
2022/11/17 02:22:46;;;;;;;4.28;4.07;;;;;;;9.50;100.00;98520.72;6086949;23;20091;-71
2022/11/17 02:25:49;;;;;;;5.95;4.50;;;;;;;9.59;100.00;98530.41;6060455;23;20033;-71
2022/11/17 02:28:28;;;;;;;4.03;3.83;;;;;;;9.38;100.00;98496.38;6095712;23;20017;-72
2022/11/17 02:31:16;;;;;;;4.10;3.90;;;;;;;9.33;100.00;98471.53;6087490;23;20589;-73
2022/11/17 02:34:03;;;;;;;4.38;4.18;;;;;;;9.59;100.00;98509.44;6091723;23;20060;-71
2022/11/17 02:37:00;;;;;;;4.30;4.10;;;;;;;9.57;100.00;98507.94;6063461;23;20016;-72
2022/11/17 02:39:37;;;;;;;5.53;5.22;;;;;;;9.51;100.00;98508.44;6087636;23;20536;-72
2022/11/17 02:42:10;;;;;;;4.20;4.00;;;;;;;9.25;100.00;98468.72;6091094;23;20098;-73
2022/11/17 02:44:36;;;;;;;;;;;;;;;9.54;100.00;98510.78;6086341;23;20036;-72
2022/11/17 02:47:08;;;;;;;4.47;4.28;;;;;;;8.96;100.00;98415.22;6058972;23;20387;-72
2022/11/17 02:49:37;;;;;;;4.28;4.07;;;;;;;8.53;100.00;98332.41;6083497;23;20091;-72
2022/11/17 02:52:05;;;;;;;3.85;3.65;;;;;;;9.10;100.00;98416.69;6053456;23;20088;-74
2022/11/17 02:54:32;;;;;;;4.10;3.90;;;;;;;9.54;100.00;98490.69;6100051;23;20753;-72
2022/11/17 02:56:58;;;;;;;4.15;3.95;;;;;;;8.94;100.00;98392.72;6057629;23;20034;-72
2022/11/17 02:59:36;;;;;;;3.97;3.78;;;;;;;9.41;100.00;98452.56;6078802;23;20034;-73
2022/11/17 03:02:14;;;;;;;4.50;4.30;;;;;;;9.62;100.00;98482.16;6055369;23;20049;-74
2022/11/17 03:05:02;;;;;;;4.15;3.95;;;;;;;9.62;100.00;98479.56;6086750;23;20097;-72
2022/11/17 03:07:31;;;;;;;4.03;3.83;;;;;;;9.68;100.00;98468.59;6028218;23;20011;-73
2022/11/17 03:10:10;;;;;;;4.25;4.05;;;;;;;9.63;100.00;98469.94;6078264;23;20116;-72
2022/11/17 03:12:54;;;;;;;4.15;3.95;;;;;;;9.09;100.00;98385.41;6058310;23;20026;-73
2022/11/17 03:15:23;;;;;;;4.15;3.95;;;;;;;9.69;100.00;98472.03;6085111;23;20081;-72
2022/11/17 03:17:58;;;;;;;4.40;4.20;;;;;;;9.59;100.00;98446.59;6063047;23;20014;-72
2022/11/17 03:20:35;;;;;;;6.72;3.97;;;;;;;9.51;100.00;98428.09;6077212;23;20014;-74
2022/11/17 03:23:28;;;;;;;4.10;3.90;;;;;;;9.76;100.00;98463.53;6060097;23;20026;-74
2022/11/17 03:25:57;;;;;;;4.10;3.90;;;;;;;9.45;100.00;98396.38;6100648;23;20515;-73
2022/11/17 03:28:28;;;;;;;4.15;3.95;;;;;;;9.86;100.00;98454.88;6061363;23;20019;-73
2022/11/17 03:30:55;;;;;;;4.38;4.18;;;;;;;9.78;100.00;98439.81;6083064;23;20014;-73
2022/11/17 03:33:24;;;;;;;4.10;3.90;;;;;;;9.72;100.00;98412.38;6095553;23;20006;-72
2022/11/17 03:35:57;;;;;;;3.70;3.60;;;;;;;9.55;100.00;98387.59;6087273;23;20748;-73
2022/11/17 03:38:25;;;;;;;;;;;;;;;9.92;100.00;98442.09;6094063;23;20441;-73
2022/11/17 03:40:56;;;;;;;4.10;3.90;;;;;;;9.16;100.00;98323.75;6085755;23;19993;-72
2022/11/17 03:43:25;;;;;;;3.88;3.75;;;;;;;9.85;100.00;98430.47;6093503;23;20014;-73
2022/11/17 03:45:55;;;;;;;4.07;3.88;;;;;;;9.38;100.00;98375.09;6076030;23;20422;-74
2022/11/17 03:48:28;;;;;;;3.70;3.60;;;;;;;9.20;100.00;98353.94;6088847;23;20479;-72
2022/11/17 03:51:05;;;;;;;4.10;3.90;;;;;;;9.60;100.00;98413.38;6058604;23;20029;-72
2022/11/17 03:53:33;;;;;;;4.28;4.03;;;;;;;9.11;100.00;98349.47;6084675;23;20018;-72
2022/11/17 03:56:15;;;;;;;3.83;3.63;;;;;;;9.75;100.00;98440.91;6093066;23;20057;-72
2022/11/17 03:58:58;;;;;;;4.18;3.97;;;;;;;9.43;100.00;98404.34;6078600;23;20091;-72
2022/11/17 04:01:26;;;;;;;;;;;;;;;9.60;100.00;98426.47;6087911;23;20021;-72
2022/11/17 04:03:52;;;;;;;4.30;4.00;;;;;;;9.59;100.00;98419.59;6089710;23;19917;-73
2022/11/17 04:06:19;;;;;;;4.20;4.00;;;;;;;9.30;100.00;98401.94;6096722;23;20037;-72
2022/11/17 04:08:45;;;;;;;4.00;3.80;;;;;;;8.30;100.00;98244.56;6096762;23;20087;-72
2022/11/17 04:16:42;;;;;;;3.90;3.70;;;;;;;9.36;100.00;98406.66;6058496;23;20038;-72
2022/11/17 04:19:08;;;;;;;4.10;3.90;;;;;;;9.01;100.00;98366.91;6086900;23;20049;-72
2022/11/17 04:21:34;;;;;;;4.28;4.07;;;;;;;9.08;100.00;98378.50;6051353;23;20071;-73
2022/11/17 04:24:01;;;;;;;3.85;3.75;;;;;;;9.16;100.00;98384.78;6085120;23;20033;-72
2022/11/17 04:29:12;;;;;;;4.00;3.80;;;;;;;9.19;100.00;98389.75;6088183;23;20022;-72
2022/11/17 04:31:38;;;;;;;4.07;3.88;;;;;;;9.04;100.00;98385.81;6048903;23;20098;-71
2022/11/17 04:34:05;;;;;;;3.97;3.78;;;;;;;8.51;100.00;98304.75;6083714;23;20014;-72
2022/11/17 04:36:38;;;;;;;4.38;4.07;;;;;;;8.70;100.00;98332.81;6048989;23;20055;-72
2022/11/17 04:39:05;;;;;;;3.75;3.63;;;;;;;8.65;100.00;98321.91;6080001;23;20090;-72
2022/11/17 04:41:52;;;;;;;4.47;4.18;;;;;;;9.07;100.00;98382.91;6050029;23;20019;-72
2022/11/17 04:44:26;;;;;;;4.22;4.03;;;;;;;8.41;100.00;98322.09;6080868;23;20079;-73
2022/11/17 04:46:53;;;;;;;4.00;3.80;;;;;;;8.84;100.00;98366.53;6055415;23;20026;-72
2022/11/17 04:49:21;;;;;;;3.80;3.70;;;;;;;8.29;100.00;98301.22;6071171;23;20440;-72
2022/11/17 04:51:48;;;;;;;4.20;4.00;;;;;;;8.95;100.00;98383.94;6057990;23;20088;-72
2022/11/17 04:54:16;;;;;;;7.25;6.95;;;;;;;8.80;100.00;98318.03;5942246;23;20880;-72
2022/11/17 04:56:44;;;;;;;4.00;3.80;;;;;;;8.82;100.00;98323.13;6055867;23;20702;-74
2022/11/17 04:59:10;;;;;;;4.20;4.00;;;;;;;9.20;100.00;98372.28;6081431;23;20095;-72
2022/11/17 05:01:37;;;;;;;4.07;3.83;;;;;;;9.22;100.00;98359.03;6057949;23;20018;-71
2022/11/17 05:04:06;;;;;;;4.10;3.90;;;;;;;9.30;100.00;98367.91;6069460;23;20018;-72
2022/11/17 05:06:37;;;;;;;4.20;4.00;;;;;;;8.88;100.00;98291.22;6086403;23;20032;-72
2022/11/17 05:09:06;;;;;;;4.07;3.80;;;;;;;9.35;100.00;98376.19;6058417;23;20698;-73
2022/11/17 05:14:20;;;;;;;4.05;3.85;;;;;;;9.44;100.00;98373.75;6086048;23;20488;-72
2022/11/17 05:17:08;;;;;;;4.25;4.05;;;;;;;8.85;100.00;98274.00;6063419;23;20076;-72
2022/11/17 05:19:43;;;;;;;4.10;3.90;;;;;;;9.45;100.00;98370.19;6095514;23;20097;-75
2022/11/17 05:25:00;;;;;;;4.13;3.92;;;;;;;9.45;100.00;98360.53;6093253;23;20094;-72
2022/11/17 05:27:26;;;;;;;3.95;3.75;;;;;;;8.99;100.00;98276.28;6075008;23;20173;-72
2022/11/17 05:29:53;;;;;;;4.10;3.90;;;;;;;9.20;100.00;98306.84;6090774;23;20565;-72
2022/11/17 05:32:19;;;;;;;4.20;4.00;;;;;;;9.03;100.00;98287.31;6078280;23;20038;-71
2022/11/17 05:34:46;;;;;;;4.20;3.85;;;;;;;9.46;100.00;98351.75;6084240;23;20033;-72
2022/11/17 05:37:12;;;;;;;4.50;4.10;;;;;;;9.49;100.00;98346.22;6056739;23;20038;-71
2022/11/17 05:39:39;;;;;;;4.07;3.88;;;;;;;9.07;100.00;98295.75;6086802;23;20044;-72
2022/11/17 05:42:05;;;;;;;4.10;3.90;;;;;;;8.52;100.00;98207.06;6083305;23;20378;-72
2022/11/17 05:44:31;;;;;;;4.53;4.10;;;;;;;9.49;100.00;98356.69;6077884;23;20041;-71
2022/11/17 05:46:58;;;;;;;4.30;4.10;;;;;;;9.46;100.00;98367.44;6081045;23;20076;-73
2022/11/17 05:49:24;;;;;;;4.50;4.30;;;;;;;9.12;100.00;98304.03;6087139;23;20082;-73
2022/11/17 05:51:51;;;;;;;4.15;3.92;;;;;;;9.36;100.00;98350.84;6083101;23;20589;-72
2022/11/17 05:54:18;;;;;;;5.72;5.43;;;;;;;9.51;100.00;98364.44;6055659;23;20596;-72
2022/11/17 05:56:51;;;;;;;4.43;4.22;;;;;;;9.50;100.00;98379.31;6049942;23;20437;-72
2022/11/17 05:59:22;;;;;;;4.22;4.03;;;;;;;9.29;100.00;98353.16;6087085;23;20776;-72
2022/11/17 06:01:53;;;;;;;4.07;3.88;;;;;;;9.51;100.00;98378.34;6079944;23;20077;-72
2022/11/17 06:04:20;;;;;;;4.50;4.30;;;;;;;9.50;100.00;98376.69;6067970;23;20091;-72
2022/11/17 06:06:47;;;;;;;4.22;4.03;;;;;;;9.50;100.00;98387.19;6061060;23;20618;-71
2022/11/17 06:09:14;;;;;;;4.25;4.00;;;;;;;9.47;100.00;98387.41;6086806;23;20063;-72
2022/11/17 06:11:40;;;;;;;4.57;4.38;;;;;;;9.30;100.00;98362.69;6055073;23;20038;-72
2022/11/17 06:14:07;;;;;;;4.60;4.40;;;;;;;8.49;100.00;98242.13;6086315;23;20095;-72
2022/11/17 06:16:39;;;;;;;5.03;4.68;;;;;;;8.94;100.00;98325.56;6057887;23;20042;-71
2022/11/17 06:19:08;;;;;;;;;;;;;;;9.40;100.00;98391.50;6090817;23;20520;-72
2022/11/17 06:21:35;;;;;;;4.43;4.18;;;;;;;8.57;100.00;98280.72;6065691;23;19914;-73
2022/11/17 06:24:22;;;;;;;3.55;3.45;;;;;;;8.42;100.00;98243.63;6098464;23;20043;-72
2022/11/17 06:26:48;;;;;;;4.30;4.10;;;;;;;9.32;100.00;98388.72;6060521;23;20033;-71
2022/11/17 06:29:15;;;;;;;4.40;4.10;;;;;;;9.45;100.00;98401.59;6085223;23;20527;-71
2022/11/17 06:31:43;;;;;;;4.20;4.00;;;;;;;9.44;100.00;98395.56;6058440;23;20507;-72
2022/11/17 06:34:10;;;;;;;5.03;4.70;;;;;;;9.12;100.00;98356.34;6091503;23;20068;-72
2022/11/17 06:36:37;;;;;;;4.15;3.92;;;;;;;9.30;100.00;98375.78;6092654;23;20013;-72
2022/11/17 06:39:03;;;;;;;3.95;3.75;;;;;;;9.44;100.00;98406.03;6038824;23;20015;-71
2022/11/17 06:41:29;;;;;;;4.47;4.28;;;;;;;9.49;100.00;98403.81;6080065;23;20009;-71
2022/11/17 06:43:56;;;;;;;4.38;4.18;;;;;;;9.48;100.00;98399.56;6053940;23;20026;-72
2022/11/17 06:46:22;;;;;;;4.32;4.13;;;;;;;8.97;100.00;98327.09;6085415;23;20022;-72
2022/11/17 06:48:48;;;;;;;4.03;3.83;;;;;;;9.39;100.00;98398.53;6058151;23;20015;-72
2022/11/17 06:51:15;;;;;;;4.10;3.90;;;;;;;9.50;100.00;98413.34;6086139;23;20095;-71
2022/11/17 06:53:41;;;;;;;4.28;4.07;;;;;;;9.50;100.00;98436.06;6084398;23;20149;-72
2022/11/17 06:56:08;;;;;;;4.80;4.60;;;;;;;8.85;100.00;98326.31;6083351;23;20093;-71
2022/11/17 06:58:36;;;;;;;4.22;4.03;;;;;;;9.47;100.00;98420.63;6059833;23;20021;-68
2022/11/17 07:01:11;;;;;;;4.10;3.90;;;;;;;9.49;100.00;98416.09;6082605;23;20091;-70
2022/11/17 07:03:40;;;;;;;4.20;4.00;;;;;;;9.46;100.00;98430.28;6057099;23;20047;-69
2022/11/17 07:06:09;;;;;;;4.40;4.20;;;;;;;9.50;100.00;98434.31;6095809;23;20033;-68
2022/11/17 07:08:36;;;;;;;4.75;4.40;;;;;;;9.49;100.00;98430.00;6045746;23;20010;-68
2022/11/17 07:11:09;;;;;;;3.90;3.75;;;;;;;9.51;100.00;98430.72;6071349;23;20689;-68
2022/11/17 07:13:36;;;;;;;4.18;3.97;;;;;;;9.51;100.00;98441.19;6065441;23;20025;-68
2022/11/17 07:16:06;;;;;;;4.22;4.03;;;;;;;9.50;100.00;98442.16;6090971;23;20032;-68
2022/11/17 07:18:33;;;;;;;7.43;4.32;;;;;;;9.56;100.00;98446.88;6053845;23;20023;-68
2022/11/17 07:21:02;;;;;;;4.13;3.92;;;;;;;9.33;100.00;98412.13;6082893;23;20078;-68
2022/11/17 07:23:33;;;;;;;4.30;4.10;;;;;;;9.29;100.00;98404.69;6056727;23;20030;-68
2022/11/17 07:26:00;;;;;;;4.30;4.10;;;;;;;9.57;100.00;98450.31;6088312;23;20019;-68
2022/11/17 07:28:28;;;;;;;4.18;3.97;;;;;;;9.59;100.00;98445.78;6045762;23;20011;-68
2022/11/17 07:30:55;;;;;;;4.10;3.90;;;;;;;9.52;100.00;98434.16;6082206;23;20025;-68
2022/11/17 07:33:22;;;;;;;4.32;4.05;;;;;;;9.56;100.00;98440.78;6080732;23;20089;-68
2022/11/17 07:35:48;;;;;;;4.22;4.03;;;;;;;9.43;100.00;98427.91;6088732;23;20029;-68
2022/11/17 07:38:15;;;;;;;4.70;4.40;;;;;;;8.66;100.00;98303.50;6059148;23;20834;-68
2022/11/17 07:40:41;;;;;;;4.75;4.30;;;;;;;9.63;100.00;98459.44;6077132;23;20010;-68
2022/11/17 07:43:07;;;;;;;4.30;3.90;;;;;;;9.66;100.00;98465.28;6057934;23;20740;-69
2022/11/17 07:45:35;;;;;;;4.15;3.95;;;;;;;9.50;100.00;98449.16;6074583;23;20600;-68
2022/11/17 07:48:03;;;;;;;4.10;3.90;;;;;;;9.72;100.00;98471.75;6073786;23;20034;-68
2022/11/17 07:50:30;;;;;;;4.43;4.13;;;;;;;9.73;100.00;98476.88;6077448;23;20084;-67
2022/11/17 07:52:57;;;;;;;4.40;4.20;;;;;;;9.74;100.00;98485.56;6042995;23;20028;-67
2022/11/17 07:55:24;;;;;;;4.63;4.32;;;;;;;9.52;100.00;98442.00;6088898;23;20014;-67
2022/11/17 07:57:55;;;;;;;4.30;4.10;;;;;;;9.83;100.00;98497.06;6083844;23;20034;-69
2022/11/17 08:00:21;;;;;;;4.47;4.07;;;;;;;9.41;100.00;98429.00;6087771;23;20065;-67
2022/11/17 08:02:48;;;;;;;4.22;4.03;;;;;;;9.87;100.00;98496.66;6066363;23;20032;-67
2022/11/17 08:05:16;;;;;;;3.97;3.78;;;;;;;9.72;100.00;98477.84;6085446;23;20042;-69
2022/11/17 08:07:44;;;;;;;4.07;3.88;;;;;;;9.94;100.00;98516.16;6062717;23;21326;-67
2022/11/17 08:10:12;;;;;;;4.10;3.90;;;;;;;9.99;100.00;98516.59;6064190;23;20054;-67
2022/11/17 08:12:38;;;;;;;4.15;3.95;;;;;;;10.02;100.00;98527.75;6067845;23;20032;-69
2022/11/17 08:15:06;;;;;;;4.25;4.05;;;;;;;10.04;100.00;98533.69;6095386;23;20037;-67
2022/11/17 08:17:32;;;;;;;4.40;4.10;;;;;;;10.01;100.00;98540.03;6086933;23;20100;-66
2022/11/17 08:19:58;;;;;;;4.10;3.90;;;;;;;10.02;100.00;98552.16;6093262;23;20544;-67
2022/11/17 08:22:25;;;;;;;4.20;4.00;;;;;;;10.13;100.00;98553.91;6088273;23;20036;-67
2022/11/17 08:24:51;;;;;;;4.10;3.90;;;;;;;9.71;100.00;98496.31;6083178;23;20355;-68
2022/11/17 08:27:17;;;;;;;4.05;3.85;;;;;;;10.18;100.00;98576.16;6090397;23;20013;-67
2022/11/17 08:29:44;;;;;;;4.68;4.10;;;;;;;10.17;100.00;98571.03;6104886;23;20117;-67
2022/11/17 08:32:10;;;;;;;4.10;3.90;;;;;;;10.23;100.00;98585.41;6090191;23;20020;-67
2022/11/17 08:34:37;;;;;;;4.20;4.00;;;;;;;10.22;100.00;98589.78;6085879;23;20032;-67
2022/11/17 08:37:03;;;;;;;4.38;4.18;;;;;;;10.10;100.00;98570.72;6088151;23;20033;-67
2022/11/17 08:39:30;;;;;;;4.20;4.00;;;;;;;10.26;100.00;98593.00;6067021;23;20023;-67
2022/11/17 08:41:56;;;;;;;4.30;4.10;;;;;;;10.29;100.00;98605.88;6093700;23;20038;-67
2022/11/17 08:44:22;;;;;;;4.10;3.90;;;;;;;10.19;100.00;98601.38;6076649;23;20511;-68
2022/11/17 08:46:49;;;;;;;4.43;4.22;;;;;;;10.34;100.00;98614.19;6091711;23;20067;-68
2022/11/17 08:49:15;;;;;;;4.28;4.07;;;;;;;10.20;100.00;98583.84;6088050;23;20014;-68
2022/11/17 08:51:42;;;;;;;4.07;3.88;;;;;;;9.67;100.00;98505.38;6090372;23;20510;-70
2022/11/17 08:54:11;;;;;;;4.00;3.80;;;;;;;10.53;100.00;98631.81;6091203;23;20490;-67
2022/11/17 08:56:37;;;;;;;4.47;4.13;;;;;;;10.25;100.00;98597.41;6087006;23;20536;-67
2022/11/17 08:59:04;;;;;;;4.13;3.90;;;;;;;10.00;100.00;98530.50;6057790;23;20026;-68
2022/11/17 09:01:30;;;;;;;4.20;4.00;;;;;;;10.56;100.00;98624.53;6093020;23;20013;-67
2022/11/17 09:03:57;;;;;;;4.28;4.07;;;;;;;10.67;100.00;98635.91;6059671;23;20037;-68
2022/11/17 09:06:23;;;;;;;4.18;3.97;;;;;;;10.81;100.00;98653.06;6093370;23;20029;-67
2022/11/17 09:08:54;;;;;;;4.30;4.10;;;;;;;10.82;100.00;98649.47;6057713;23;20022;-69
2022/11/17 09:11:20;;;;;;;4.50;4.30;;;;;;;10.62;100.00;98643.31;6076301;23;20041;-69
2022/11/17 09:13:47;;;;;;;4.40;4.20;;;;;;;10.71;100.00;98648.59;6060956;23;20038;-69
2022/11/17 09:16:15;;;;;;;5.93;4.25;;;;;;;10.82;100.00;98660.78;6093757;23;20026;-69
2022/11/17 09:18:42;;;;;;;4.53;4.22;;;;;;;10.86;100.00;98664.81;6058037;23;20030;-69
2022/11/17 09:21:11;;;;;;;4.25;4.05;;;;;;;10.92;100.00;98677.41;6076658;23;20026;-69
2022/11/17 09:23:38;;;;;;;4.88;4.22;;;;;;;10.95;100.00;98676.34;6049080;23;20052;-69
2022/11/17 09:26:13;;;;;;;4.38;4.15;;;;;;;9.43;100.00;98463.75;6089062;23;20018;-69
2022/11/17 09:28:39;;;;;;;4.35;4.15;;;;;;;11.03;100.00;98684.38;6054742;23;20029;-69
2022/11/17 09:31:08;;;;;;;4.22;4.03;;;;;;;11.09;100.00;98691.72;6081735;23;20018;-69
2022/11/17 09:33:35;;;;;;;4.40;4.20;;;;;;;10.61;100.00;98613.63;6061243;23;20076;-69
2022/11/17 09:36:02;;;;;;;4.13;3.92;;;;;;;11.00;100.00;98661.00;6085305;23;20177;-69
2022/11/17 09:38:28;;;;;;;4.40;4.20;;;;;;;11.17;100.00;98689.25;6060929;23;20540;-69
2022/11/17 09:40:57;;;;;;;4.80;4.40;;;;;;;11.25;100.00;98682.50;6069611;23;20022;-69
2022/11/17 09:43:37;;;;;;;4.38;4.18;;;;;;;11.23;96.78;98679.19;6095372;23;20076;-69
2022/11/17 09:46:34;;;;;;;4.28;4.07;;;;;;;11.40;95.59;98680.34;6073689;23;20063;-70
2022/11/17 09:49:13;;;;;;;5.20;4.80;;;;;;;11.31;94.20;98658.34;6066442;23;20037;-69
2022/11/17 09:51:43;;;;;;;4.63;4.43;;;;;;;11.05;94.29;98629.13;6078737;23;20021;-69
2022/11/17 09:54:25;;;;;;;4.63;4.32;;;;;;;11.21;94.83;98660.13;6032262;23;20575;-69
2022/11/17 09:56:56;;;;;;;4.40;4.20;;;;;;;11.23;95.23;98659.00;6063267;23;20468;-69
2022/11/17 09:59:26;;;;;;;4.30;4.10;;;;;;;11.42;94.81;98688.91;6102085;23;20029;-68
2022/11/17 10:01:53;;;;;;;4.60;4.40;;;;;;;11.28;95.95;98675.19;6054514;23;20038;-69
2022/11/17 10:04:19;;;;;;;4.45;4.25;;;;;;;11.44;95.61;98700.09;6096031;23;20655;-69
2022/11/17 10:06:49;;;;;;;4.65;4.45;;;;;;;11.44;94.63;98697.47;6063507;23;20034;-69
2022/11/17 10:09:37;;;;;;;4.47;4.28;;;;;;;11.42;94.47;98689.72;6083343;23;20469;-69
2022/11/17 10:12:25;;;;;;;4.20;4.00;;;;;;;11.45;94.48;98691.28;6034558;23;20030;-69
2022/11/17 10:14:53;;;;;;;7.18;4.20;;;;;;;11.07;93.39;98620.16;5987204;23;20030;-68
2022/11/17 10:17:19;;;;;;;4.80;4.50;;;;;;;11.51;93.33;98688.94;5991819;23;20022;-68
2022/11/17 10:19:46;;;;;;;4.38;4.18;;;;;;;11.51;92.85;98688.94;6001569;23;20089;-67
2022/11/17 10:22:18;;;;;;;4.25;4.05;;;;;;;11.56;92.39;98699.03;5995781;23;100516;-67
2022/11/17 10:24:49;;;;;;;4.40;4.20;;;;;;;11.65;91.38;98689.50;6058062;23;20101;-67
2022/11/17 10:27:16;;;;;;;4.70;4.40;;;;;;;11.54;91.44;98699.16;6012433;23;20021;-68
2022/11/17 10:29:58;;;;;;;5.35;4.40;;;;;;;11.52;91.34;98708.97;5987075;23;20051;-67
2022/11/17 10:32:28;;;;;;;4.30;4.10;;;;;;;11.45;92.16;98709.66;6016045;23;20018;-67
2022/11/17 10:34:55;;;;;;;4.60;4.30;;;;;;;11.15;93.03;98659.69;6007153;23;20605;-68
2022/11/17 10:37:29;;;;;;;4.18;3.97;;;;;;;11.14;92.70;98660.63;6042183;23;20096;-69
2022/11/17 10:40:15;;;;;;;4.30;4.10;;;;;;;11.14;92.31;98644.88;6044895;23;20105;-68
2022/11/17 10:43:03;;;;;;;4.35;4.15;;;;;;;11.56;92.31;98712.97;6020034;23;20053;-70
2022/11/17 10:45:31;;;;;;;4.70;4.50;;;;;;;11.40;91.07;98696.91;6016542;23;20030;-69
2022/11/17 10:48:37;;;;;;;4.50;4.30;;;;;;;11.55;89.86;98713.97;6034752;23;20026;-68
2022/11/17 10:51:25;;;;;;;4.45;4.25;;;;;;;11.52;90.46;98706.34;5937299;24;20028;-69
2022/11/17 10:54:16;;;;;;;4.20;4.00;;;;;;;11.53;89.62;98702.75;5988698;23;20023;-69
2022/11/17 10:56:46;;;;;;;4.45;4.15;;;;;;;11.54;89.72;98709.66;6048063;23;20103;-69
2022/11/17 10:59:19;;;;;;;6.05;5.75;;;;;;;10.40;88.57;98518.44;6048141;23;20036;-73
2022/11/17 11:01:49;;;;;;;4.50;4.30;;;;;;;11.15;89.90;98648.34;6070021;23;20092;-73
2022/11/17 11:04:40;;;;;;;4.78;4.50;;;;;;;11.63;89.61;98710.66;6057041;23;20433;-69
2022/11/17 11:07:18;;;;;;;4.10;3.90;;;;;;;11.93;91.94;98715.00;6049554;23;19999;-68
2022/11/17 11:09:58;;;;;;;4.75;4.32;;;;;;;11.60;88.41;98647.88;6060864;23;20088;-73
2022/11/17 11:12:40;;;;;;;4.40;4.20;;;;;;;11.86;87.14;98684.13;6068969;23;20406;-71
2022/11/17 11:15:15;;;;;;;4.35;4.15;;;;;;;11.28;86.10;98603.47;6071974;23;20030;-72
2022/11/17 11:17:41;;;;;;;4.30;4.10;;;;;;;11.93;87.16;98698.41;6085222;23;20026;-72
2022/11/17 11:20:13;;;;;;;4.30;4.10;;;;;;;11.90;86.52;98699.50;6060255;23;20025;-72
2022/11/17 11:22:44;;;;;;;4.63;4.32;;;;;;;11.91;86.83;98698.56;6074606;23;20088;-71
2022/11/17 11:25:23;;;;;;;4.30;4.10;;;;;;;11.94;85.91;98695.63;6058976;23;20022;-71
2022/11/17 11:28:10;;;;;;;4.38;4.18;;;;;;;11.51;85.36;98641.66;6047903;23;20043;-71
2022/11/17 11:30:45;;;;;;;4.80;4.53;;;;;;;11.91;85.07;98698.56;6082297;23;20035;-72
2022/11/17 11:33:43;;;;;;;4.30;4.00;;;;;;;11.88;84.83;98698.78;6071063;23;20501;-72
2022/11/17 11:36:20;;;;;;;4.65;4.45;;;;;;;11.65;84.86;98650.09;6080321;23;20018;-72
2022/11/17 11:39:28;;;;;;;6.28;4.38;;;;;;;11.95;83.88;98691.22;6070997;23;20028;-72
2022/11/17 11:41:54;;;;;;;4.47;4.28;;;;;;;12.03;84.66;98703.66;6057739;23;20511;-71
2022/11/17 11:44:31;;;;;;;4.05;3.85;;;;;;;12.02;82.73;98691.50;6065889;23;20468;-72
2022/11/17 11:47:21;;;;;;;4.40;4.20;;;;;;;11.74;83.58;98641.38;6047633;23;20029;-72
2022/11/17 11:50:22;;;;;;;4.35;4.15;;;;;;;12.11;83.44;98693.31;6067588;23;20048;-71
2022/11/17 11:53:03;;;;;;;4.50;4.30;;;;;;;12.03;83.46;98695.75;6026643;23;20026;-72
2022/11/17 11:55:33;;;;;;;4.75;4.55;;;;;;;11.74;84.35;98646.63;6067692;23;20080;-72
2022/11/17 11:58:10;;;;;;;7.60;4.50;;;;;;;12.12;82.68;98687.06;6059008;23;20037;-72
2022/11/17 12:00:40;;;;;;;4.47;4.28;;;;;;;12.04;80.77;98671.16;6043118;23;20048;-71
2022/11/17 12:03:24;;;;;;;4.70;4.40;;;;;;;11.33;81.04;98570.56;6069760;23;20416;-70
2022/11/17 12:05:57;;;;;;;4.43;4.22;;;;;;;12.04;81.04;98682.50;6064193;23;20026;-71
2022/11/17 12:08:48;;;;;;;4.50;4.30;;;;;;;11.86;79.83;98644.69;6033662;23;20078;-71
2022/11/17 12:14:03;;;;;;;5.30;4.80;;;;;;;11.79;81.58;98654.94;6050079;23;20046;-72
2022/11/17 12:16:33;;;;;;;4.90;4.60;;;;;;;12.02;81.26;98683.59;6053447;23;20010;-72
2022/11/17 12:19:00;;;;;;;4.40;4.20;;;;;;;11.96;81.29;98672.66;6083800;23;20522;-72
2022/11/17 12:21:28;;;;;;;4.72;4.50;;;;;;;11.47;81.51;98610.53;6078362;23;20058;-72